Terminal Aerodrome Forecast
Issued by NWS Tampa Bay Area, FL

Home | Current Version | Previous Version | Text Only | Print | Product List | Glossary On
Versions: 1 2 3 4 5 6 7 8 9 10 11 12
914
FTUS42 KTBW 122326
TAFFMY
TAF
KFMY 122326Z 1300/1324 30007KT P6SM SKC
     FM131300 34006KT P6SM FEW020
     FM131500 35012G18KT P6SM SCT035=

USA.gov is the U.S. government's official web portal to all federal, state and local government web resources and services.